createdAt,value
2023-03-19T00:00:13.409Z,11.22
2023-03-19T00:03:38.739Z,11.14
2023-03-19T00:07:03.846Z,11.06
2023-03-19T00:10:29.095Z,11
2023-03-19T00:13:54.336Z,10.96
2023-03-19T00:17:19.568Z,10.91
2023-03-19T00:20:44.824Z,10.86
2023-03-19T00:24:09.986Z,10.86
2023-03-19T00:27:35.195Z,10.81
2023-03-19T00:31:00.503Z,10.75
2023-03-19T00:34:25.626Z,10.7
2023-03-19T00:37:50.861Z,10.59
2023-03-19T00:41:16.078Z,10.44
2023-03-19T00:44:41.280Z,10.36
2023-03-19T00:48:06.506Z,10.27
2023-03-19T00:51:31.696Z,10.18
2023-03-19T00:54:56.887Z,10.08
2023-03-19T00:58:22.119Z,10
2023-03-19T01:01:39.162Z,9.86
2023-03-19T01:05:04.365Z,9.79
2023-03-19T01:08:29.558Z,9.78
2023-03-19T01:11:54.755Z,9.79
2023-03-19T01:15:19.943Z,9.84
2023-03-19T01:18:43.125Z,9.87
2023-03-19T01:22:08.357Z,9.89
2023-03-19T01:25:33.532Z,9.9
2023-03-19T01:28:58.761Z,9.91
2023-03-19T01:32:23.979Z,9.86
2023-03-19T01:35:49.255Z,9.79
2023-03-19T01:39:14.452Z,9.76
2023-03-19T01:42:39.622Z,9.71
2023-03-19T01:46:04.942Z,9.66
2023-03-19T01:49:30.041Z,9.65
2023-03-19T01:52:55.262Z,9.66
2023-03-19T01:56:20.500Z,9.67
2023-03-19T01:59:45.690Z,9.69
2023-03-19T02:03:10.910Z,9.67
2023-03-19T02:06:36.152Z,9.63
2023-03-19T02:10:01.342Z,9.6
2023-03-19T02:13:26.591Z,9.58
2023-03-19T02:16:51.748Z,9.54
2023-03-19T02:20:16.947Z,9.51
2023-03-19T02:23:42.174Z,9.48
2023-03-19T02:27:07.382Z,9.48
2023-03-19T02:30:32.784Z,9.51
2023-03-19T02:33:57.776Z,9.56
2023-03-19T02:37:22.979Z,9.62
2023-03-19T02:40:48.204Z,9.71
2023-03-19T02:44:13.417Z,9.77
2023-03-19T02:47:38.651Z,9.82
2023-03-19T02:51:03.829Z,9.83
2023-03-19T02:54:29.022Z,9.86
2023-03-19T02:57:54.220Z,9.89
2023-03-19T03:01:19.489Z,9.92
2023-03-19T03:04:44.661Z,9.97
2023-03-19T03:08:09.881Z,10.01
2023-03-19T03:11:35.082Z,10.04
2023-03-19T03:15:00.288Z,10.06
2023-03-19T03:18:25.490Z,10.08
2023-03-19T03:21:50.734Z,10.11
2023-03-19T03:25:15.895Z,10.16
2023-03-19T03:28:41.097Z,10.19
2023-03-19T03:32:06.319Z,10.22
2023-03-19T03:35:31.543Z,10.24
2023-03-19T03:38:56.750Z,10.25
2023-03-19T03:42:21.908Z,10.3
2023-03-19T03:45:47.151Z,10.36
2023-03-19T03:49:12.297Z,10.41
2023-03-19T03:52:37.502Z,10.43
2023-03-19T03:56:02.753Z,10.44
2023-03-19T03:59:27.911Z,10.45
2023-03-19T04:02:53.187Z,10.45
2023-03-19T04:06:18.366Z,10.44
2023-03-19T04:09:43.565Z,10.43
2023-03-19T04:13:08.824Z,10.41
2023-03-19T04:16:34.010Z,10.43
2023-03-19T04:19:59.182Z,10.45
2023-03-19T04:23:24.415Z,10.45
2023-03-19T04:26:49.610Z,10.48
2023-03-19T04:30:14.831Z,10.53
2023-03-19T04:33:40.020Z,10.6
2023-03-19T04:37:05.262Z,10.66
2023-03-19T04:40:30.455Z,10.72
2023-03-19T04:43:55.665Z,10.77
2023-03-19T04:47:20.875Z,10.78
2023-03-19T04:50:46.039Z,10.79
2023-03-19T04:54:11.246Z,10.82
2023-03-19T04:57:36.464Z,10.83
2023-03-19T05:01:01.751Z,10.83
2023-03-19T05:04:26.892Z,10.85
2023-03-19T05:07:52.096Z,10.91
2023-03-19T05:11:17.325Z,10.97
2023-03-19T05:14:42.549Z,11.04
2023-03-19T05:18:07.758Z,11.08
2023-03-19T05:21:33.451Z,11.13
2023-03-19T05:24:58.654Z,11.17
2023-03-19T05:28:23.850Z,11.21
2023-03-19T05:31:49.076Z,11.22
2023-03-19T05:35:14.295Z,11.28
2023-03-19T05:38:39.528Z,11.31
2023-03-19T05:42:04.743Z,11.35
2023-03-19T05:45:29.947Z,11.37
2023-03-19T05:48:55.173Z,11.39
2023-03-19T05:52:20.378Z,11.41
2023-03-19T05:55:45.631Z,11.42
2023-03-19T05:59:10.820Z,11.43
2023-03-19T06:02:36.115Z,11.42
2023-03-19T06:06:01.303Z,11.42
2023-03-19T06:09:26.496Z,11.42
2023-03-19T06:12:51.746Z,11.44
2023-03-19T06:16:17.082Z,11.46
2023-03-19T06:19:42.168Z,11.48
2023-03-19T06:23:07.384Z,11.51
2023-03-19T06:26:32.598Z,11.57
2023-03-19T06:29:57.860Z,11.62
2023-03-19T06:33:23.052Z,11.67
2023-03-19T06:36:48.279Z,11.7
2023-03-19T06:40:13.514Z,11.77
2023-03-19T06:43:38.711Z,11.85
2023-03-19T06:47:03.996Z,11.93
2023-03-19T06:50:29.167Z,12.03
2023-03-19T06:53:54.401Z,12.12
2023-03-19T06:57:19.613Z,12.23
2023-03-19T07:00:44.901Z,12.31
2023-03-19T07:04:10.152Z,12.37
2023-03-19T07:07:35.310Z,12.45
2023-03-19T07:11:00.563Z,12.48
2023-03-19T07:14:25.769Z,12.5
2023-03-19T07:17:50.987Z,12.53
2023-03-19T07:21:16.219Z,12.57
2023-03-19T07:24:41.424Z,12.61
2023-03-19T07:28:06.627Z,12.68
2023-03-19T07:31:31.864Z,12.75
2023-03-19T07:34:57.042Z,12.8
2023-03-19T07:38:22.281Z,12.88
2023-03-19T07:41:47.469Z,12.96
2023-03-19T07:45:12.682Z,13.05
2023-03-19T07:48:37.909Z,13.12
2023-03-19T07:52:03.122Z,13.12
2023-03-19T07:55:28.324Z,13.14
2023-03-19T07:58:53.522Z,13.12
2023-03-19T08:02:20.942Z,13.1
2023-03-19T08:05:43.927Z,13.07
2023-03-19T08:09:09.165Z,13.03
2023-03-19T08:12:34.396Z,13.02
2023-03-19T08:15:59.608Z,12.98
2023-03-19T08:19:24.802Z,12.95
2023-03-19T08:22:50.030Z,12.94
2023-03-19T08:26:15.242Z,12.97
2023-03-19T08:29:40.451Z,12.98
2023-03-19T08:33:05.706Z,12.96
2023-03-19T08:36:30.854Z,12.91
2023-03-19T08:39:56.062Z,12.85
2023-03-19T08:43:21.261Z,12.86
2023-03-19T08:46:46.520Z,12.87
2023-03-19T08:50:11.712Z,12.9
2023-03-19T08:53:36.915Z,12.88
2023-03-19T08:57:02.148Z,12.85
2023-03-19T09:00:27.351Z,12.8
2023-03-19T09:03:52.614Z,12.69
2023-03-19T09:07:17.815Z,12.62
2023-03-19T09:10:43.063Z,12.58
2023-03-19T09:14:08.342Z,12.54
2023-03-19T09:17:33.561Z,12.51
2023-03-19T09:20:58.831Z,12.48
2023-03-19T09:24:24.043Z,12.46
2023-03-19T09:27:57.858Z,12.47
2023-03-19T09:31:23.867Z,12.54
2023-03-19T09:34:49.137Z,12.57
2023-03-19T09:38:14.388Z,12.6
2023-03-19T09:41:39.609Z,12.65
2023-03-19T09:45:04.866Z,12.63
2023-03-19T09:48:30.260Z,12.67
2023-03-19T09:51:55.482Z,12.7
2023-03-19T09:55:21.644Z,12.76
2023-03-19T09:58:46.871Z,12.84
2023-03-19T10:02:12.078Z,12.88
2023-03-19T10:05:37.376Z,12.93
2023-03-19T10:09:02.530Z,12.95
2023-03-19T10:12:27.767Z,12.92
2023-03-19T10:15:53.037Z,12.88
2023-03-19T10:19:18.196Z,12.84
2023-03-19T10:22:43.379Z,12.81
2023-03-19T10:26:08.589Z,12.75
2023-03-19T10:29:33.796Z,12.7
2023-03-19T10:32:59.007Z,12.61
2023-03-19T10:36:24.228Z,12.51
2023-03-19T10:39:49.434Z,12.44
2023-03-19T10:43:14.689Z,12.37
2023-03-19T10:46:39.997Z,12.31
2023-03-19T10:50:05.158Z,12.24
2023-03-19T10:53:30.436Z,12.21
2023-03-19T10:56:55.699Z,12.16
2023-03-19T11:00:20.907Z,12.09
2023-03-19T11:03:46.193Z,12.04
2023-03-19T11:07:11.346Z,11.99
2023-03-19T11:10:36.595Z,11.98
2023-03-19T11:14:01.804Z,11.98
2023-03-19T11:17:27.014Z,11.94
2023-03-19T11:20:52.285Z,11.94
2023-03-19T11:24:17.453Z,11.92
2023-03-19T11:27:42.738Z,11.9
2023-03-19T11:31:08.088Z,11.86
2023-03-19T11:34:33.393Z,11.91
2023-03-19T11:37:58.687Z,11.95
2023-03-19T11:41:23.898Z,11.95
2023-03-19T11:44:49.195Z,11.94
2023-03-19T11:48:14.475Z,11.96
2023-03-19T11:51:39.804Z,12.02
2023-03-19T11:55:05.188Z,12.05
2023-03-19T11:58:30.510Z,12.1
2023-03-19T12:01:55.838Z,12.18
2023-03-19T12:05:21.079Z,12.22
2023-03-19T12:08:46.284Z,12.26
2023-03-19T12:12:11.569Z,12.36
2023-03-19T12:15:37.057Z,12.53
2023-03-19T12:19:05.200Z,12.71
2023-03-19T12:22:32.795Z,12.89
2023-03-19T12:25:58.126Z,13.09
2023-03-19T12:29:23.443Z,13.27
2023-03-19T12:32:48.671Z,13.46
2023-03-19T12:36:13.929Z,13.6
2023-03-19T12:39:39.201Z,13.72
2023-03-19T12:43:04.440Z,13.83
2023-03-19T12:46:29.777Z,13.89
2023-03-19T12:49:54.950Z,13.93
2023-03-19T12:53:20.308Z,13.94
2023-03-19T12:56:45.482Z,13.91
2023-03-19T13:00:10.736Z,13.94
2023-03-19T13:03:36.021Z,13.95
2023-03-19T13:07:01.296Z,13.95
2023-03-19T13:10:26.511Z,13.95
2023-03-19T13:13:51.763Z,13.97
2023-03-19T13:17:16.991Z,13.95
2023-03-19T13:20:42.274Z,13.96
2023-03-19T13:24:07.504Z,13.94
2023-03-19T13:27:32.856Z,13.89
2023-03-19T13:30:58.054Z,13.91
2023-03-19T13:34:23.259Z,13.93
2023-03-19T13:37:48.524Z,13.97
2023-03-19T13:41:13.716Z,14.01
2023-03-19T13:44:38.917Z,14.06
2023-03-19T13:48:14.568Z,14.08
2023-03-19T13:51:29.381Z,14.12
2023-03-19T13:54:54.588Z,14.17
2023-03-19T13:58:19.763Z,14.19
2023-03-19T14:01:45.240Z,14.23
2023-03-19T14:05:10.256Z,14.3
2023-03-19T14:08:35.483Z,14.41
2023-03-19T14:12:00.734Z,14.47
2023-03-19T14:15:25.923Z,14.56
2023-03-19T14:18:51.139Z,14.64
2023-03-19T14:22:16.393Z,14.63
2023-03-19T14:25:41.572Z,14.67
2023-03-19T14:29:06.895Z,14.71
2023-03-19T14:32:32.129Z,14.72
2023-03-19T14:36:02.932Z,14.78
2023-03-19T14:39:28.256Z,14.8
2023-03-19T14:42:53.515Z,14.73
2023-03-19T14:46:18.826Z,14.66
2023-03-19T14:49:44.028Z,14.61
2023-03-19T14:53:09.292Z,14.65
2023-03-19T14:56:34.546Z,14.68
2023-03-19T14:59:59.728Z,14.73
2023-03-19T15:03:24.992Z,14.79
2023-03-19T15:39:35.006Z,12.71
2023-03-19T15:43:00.224Z,13.65
2023-03-19T15:46:25.480Z,13.86
2023-03-19T15:49:50.637Z,14.02
2023-03-19T15:53:15.868Z,14.14
2023-03-19T15:56:41.108Z,14.23
2023-03-19T16:00:06.279Z,14.27
2023-03-19T16:03:31.547Z,14.32
2023-03-19T16:06:56.746Z,14.36
2023-03-19T16:10:21.995Z,14.32
2023-03-19T16:13:47.281Z,14.33
2023-03-19T16:17:12.449Z,14.32
2023-03-19T16:20:38.742Z,14.32
2023-03-19T16:24:04.009Z,14.3
2023-03-19T16:27:29.341Z,14.29
2023-03-19T16:30:54.635Z,14.28
2023-03-19T16:34:19.937Z,14.3
2023-03-19T16:37:45.171Z,14.29
2023-03-19T16:41:10.421Z,14.26
2023-03-19T16:44:35.749Z,14.23
2023-03-19T16:48:01.088Z,14.15
2023-03-19T16:51:26.326Z,14.08
2023-03-19T16:54:51.531Z,13.95
2023-03-19T16:58:16.794Z,13.75
2023-03-19T17:01:42.057Z,13.6
2023-03-19T17:05:07.263Z,13.43
2023-03-19T17:08:32.463Z,13.26
2023-03-19T17:11:57.686Z,13.17
2023-03-19T17:15:22.890Z,13.06
2023-03-19T17:18:48.091Z,12.91
2023-03-19T17:22:13.321Z,12.77
2023-03-19T17:25:38.545Z,12.63
2023-03-19T17:29:03.789Z,12.56
2023-03-19T17:32:29.031Z,12.54
2023-03-19T17:35:54.316Z,12.5
2023-03-19T17:39:19.536Z,12.46
2023-03-19T17:42:44.722Z,12.43
2023-03-19T17:46:09.898Z,12.41
2023-03-19T17:49:35.105Z,12.39
2023-03-19T17:53:00.303Z,12.4
2023-03-19T17:56:25.575Z,12.41
2023-03-19T17:59:50.730Z,12.42
2023-03-19T18:03:15.932Z,12.43
2023-03-19T18:06:41.140Z,12.41
2023-03-19T18:10:06.340Z,12.43
2023-03-19T18:13:31.581Z,12.47
2023-03-19T18:16:56.778Z,12.52
2023-03-19T18:20:21.962Z,12.57
2023-03-19T18:23:47.160Z,12.6
2023-03-19T18:27:12.376Z,12.61
2023-03-19T18:30:37.784Z,12.63
2023-03-19T18:34:02.796Z,12.64
2023-03-19T18:37:28.000Z,12.63
2023-03-19T18:40:53.213Z,12.63
2023-03-19T18:44:18.872Z,12.64
2023-03-19T18:47:44.150Z,12.6
2023-03-19T18:51:09.982Z,12.56
2023-03-19T18:54:34.985Z,12.57
2023-03-19T18:58:00.204Z,12.59
2023-03-19T19:01:25.477Z,12.61
2023-03-19T19:04:50.794Z,12.6
2023-03-19T19:08:15.822Z,12.61
2023-03-19T19:11:41.052Z,12.58
2023-03-19T19:15:06.217Z,12.56
2023-03-19T19:18:31.434Z,12.56
2023-03-19T19:21:56.649Z,12.56
2023-03-19T19:25:21.829Z,12.58
2023-03-19T19:28:47.038Z,12.57
2023-03-19T19:32:12.228Z,12.59
2023-03-19T19:35:37.529Z,12.58
2023-03-19T19:39:02.774Z,12.52
2023-03-19T19:42:27.930Z,12.5
2023-03-19T19:45:53.202Z,12.48
2023-03-19T19:49:18.310Z,12.51
2023-03-19T19:52:43.505Z,12.53
2023-03-19T19:56:08.732Z,12.52
2023-03-19T19:59:33.877Z,12.54
2023-03-19T20:02:59.099Z,12.58
2023-03-19T20:06:24.303Z,12.62
2023-03-19T20:09:49.483Z,12.57
2023-03-19T20:13:14.717Z,12.57
2023-03-19T20:16:39.921Z,12.63
2023-03-19T20:20:05.140Z,12.67
2023-03-19T20:23:30.339Z,12.7
2023-03-19T20:26:55.526Z,12.75
2023-03-19T20:30:20.766Z,12.78
2023-03-19T20:33:45.937Z,12.81
2023-03-19T20:37:11.130Z,12.81
2023-03-19T20:40:36.325Z,12.8
2023-03-19T20:44:01.521Z,12.76
2023-03-19T20:47:26.756Z,12.76
2023-03-19T20:50:51.948Z,12.73
2023-03-19T20:54:17.142Z,12.72
2023-03-19T20:57:42.430Z,12.66
2023-03-19T21:01:07.617Z,12.59
2023-03-19T21:04:32.839Z,12.55
2023-03-19T21:07:58.013Z,12.51
2023-03-19T21:11:23.250Z,12.43
2023-03-19T21:14:48.471Z,12.41
2023-03-19T21:18:13.751Z,12.4
2023-03-19T21:21:38.993Z,12.38
2023-03-19T21:25:04.197Z,12.34
2023-03-19T21:28:29.383Z,12.32
2023-03-19T21:31:54.639Z,12.23
2023-03-19T21:35:19.912Z,12.15
2023-03-19T21:38:45.152Z,12.04
2023-03-19T21:42:10.371Z,12
2023-03-19T21:45:35.835Z,11.97
2023-03-19T21:49:00.856Z,11.85
2023-03-19T21:52:26.076Z,11.77
2023-03-19T21:55:51.318Z,11.7
2023-03-19T21:59:16.533Z,11.67
2023-03-19T22:02:41.738Z,11.67
2023-03-19T22:06:06.936Z,11.67
2023-03-19T22:09:32.158Z,11.67
2023-03-19T22:12:57.382Z,11.68
2023-03-19T22:16:22.560Z,11.68
2023-03-19T22:19:47.797Z,11.7
2023-03-19T22:23:12.989Z,11.7
2023-03-19T22:26:38.191Z,11.66
2023-03-19T22:30:03.396Z,11.67
2023-03-19T22:33:28.590Z,11.66
2023-03-19T22:36:53.800Z,11.65
2023-03-19T22:40:18.977Z,11.64
2023-03-19T22:43:44.199Z,11.6
2023-03-19T22:47:09.435Z,11.56
2023-03-19T22:50:34.627Z,11.55
2023-03-19T22:53:59.822Z,11.56
2023-03-19T22:57:25.057Z,11.61
2023-03-19T23:00:50.279Z,11.65
2023-03-19T23:04:15.637Z,11.68
2023-03-19T23:07:40.667Z,11.68
2023-03-19T23:11:05.880Z,11.68
2023-03-19T23:14:31.551Z,11.67
2023-03-19T23:17:56.281Z,11.63
2023-03-19T23:21:21.515Z,11.61
2023-03-19T23:24:46.685Z,11.6
2023-03-19T23:28:11.907Z,11.55
2023-03-19T23:31:37.086Z,11.53
2023-03-19T23:35:02.355Z,11.5
2023-03-19T23:38:27.492Z,11.5
2023-03-19T23:41:52.676Z,11.46
2023-03-19T23:45:17.842Z,11.44
2023-03-19T23:48:43.049Z,11.49
2023-03-19T23:52:08.231Z,11.51
2023-03-19T23:55:33.848Z,11.55
